createdAt,value
2018-12-11T00:00:29.586Z,97.83
2018-12-11T00:01:28.131Z,97.74
2018-12-11T00:02:26.697Z,97.36
2018-12-11T00:03:25.532Z,97.27
2018-12-11T00:04:24.182Z,97.03
2018-12-11T00:05:22.709Z,97.41
2018-12-11T00:06:21.232Z,97.5
2018-12-11T00:07:19.856Z,98.07
2018-12-11T00:08:18.412Z,98.07
2018-12-11T00:09:16.971Z,97.31
2018-12-11T00:10:16.353Z,97.6
2018-12-11T00:11:14.893Z,97.31
2018-12-11T00:12:13.411Z,98.26
2018-12-11T00:13:11.928Z,98.07
2018-12-11T00:14:10.512Z,97.88
2018-12-11T00:15:09.325Z,98.26
2018-12-11T00:16:08.066Z,99.02
2018-12-11T00:17:06.637Z,98.45
2018-12-11T00:18:05.225Z,98.88
2018-12-11T00:19:03.929Z,98.79
2018-12-11T00:20:02.477Z,99.02
2018-12-11T00:22:42.959Z,98.5
2018-12-11T00:23:41.761Z,98.97
2018-12-11T00:24:40.326Z,98.31
2018-12-11T00:25:38.927Z,98.36
2018-12-11T00:26:37.492Z,98.5
2018-12-11T00:27:36.045Z,98.83
2018-12-11T00:28:34.574Z,99.02
2018-12-11T00:29:33.132Z,97.88
2018-12-11T00:30:31.739Z,97.97
2018-12-11T00:31:30.272Z,97.88
2018-12-11T00:32:28.809Z,97.97
2018-12-11T00:33:27.587Z,97.5
2018-12-11T00:35:36.452Z,97.03
2018-12-11T00:36:35.145Z,97.03
2018-12-11T00:37:33.840Z,96.84
2018-12-11T00:38:32.394Z,97.12
2018-12-11T00:39:30.988Z,97.12
2018-12-11T00:40:29.562Z,97.78
2018-12-11T00:41:28.070Z,97.78
2018-12-11T00:42:26.621Z,97.69
2018-12-11T00:43:25.460Z,97.78
2018-12-11T00:44:24.136Z,96.74
2018-12-11T00:45:22.678Z,96.74
2018-12-11T00:46:21.330Z,96.93
2018-12-11T00:47:20.892Z,97.03
2018-12-11T00:48:18.518Z,97.03
2018-12-11T00:49:17.054Z,97.03
2018-12-11T00:50:15.635Z,96.55
2018-12-11T00:51:14.225Z,96.36
2018-12-11T00:52:12.791Z,96.45
2018-12-11T00:53:11.690Z,96.74
2018-12-11T00:54:10.202Z,96.84
2018-12-11T00:55:08.786Z,96.74
2018-12-11T00:56:07.507Z,96.93
2018-12-11T00:58:50.494Z,97.03
2018-12-11T00:59:49.004Z,97.03
2018-12-11T01:02:29.452Z,96.65
2018-12-11T01:03:28.143Z,96.84
2018-12-11T01:04:26.688Z,96.93
2018-12-11T01:05:25.305Z,97.12
2018-12-11T01:06:24.120Z,96.84
2018-12-11T01:07:22.717Z,97.03
2018-12-11T01:08:21.541Z,97.03
2018-12-11T01:09:20.081Z,96.36
2018-12-11T01:10:18.605Z,96.74
2018-12-11T01:11:17.400Z,97.03
2018-12-11T01:12:16.096Z,97.6
2018-12-11T01:13:14.643Z,97.5
2018-12-11T01:14:13.160Z,97.03
2018-12-11T01:15:11.733Z,96.93
2018-12-11T01:16:10.267Z,97.31
2018-12-11T01:17:08.838Z,97.69
2018-12-11T01:18:07.471Z,98.07
2018-12-11T01:19:05.995Z,97.78
2018-12-11T01:20:04.631Z,97.97
2018-12-11T01:21:03.314Z,97.41
2018-12-11T01:22:01.963Z,97.6
2018-12-11T01:23:00.516Z,97.5
2018-12-11T01:23:59.169Z,97.12
2018-12-11T01:24:57.812Z,97.5
2018-12-11T01:25:56.359Z,97.22
2018-12-11T01:26:54.910Z,98.07
2018-12-11T01:27:53.467Z,98.07
2018-12-11T01:28:51.996Z,97.97
2018-12-11T01:29:50.570Z,98.17
2018-12-11T01:30:49.331Z,97.97
2018-12-11T01:31:47.887Z,97.88
2018-12-11T01:32:46.465Z,97.97
2018-12-11T01:33:45.011Z,97.6
2018-12-11T01:34:43.915Z,97.6
2018-12-11T01:35:42.458Z,98.07
2018-12-11T01:36:41.058Z,97.78
2018-12-11T01:37:39.599Z,97.41
2018-12-11T01:38:38.124Z,97.22
2018-12-11T01:39:36.675Z,97.6
2018-12-11T01:40:35.199Z,97.88
2018-12-11T01:41:33.745Z,97.31
2018-12-11T01:42:32.324Z,96.65
2018-12-11T01:43:30.834Z,96.93
2018-12-11T01:44:29.739Z,96.74
2018-12-11T01:45:28.349Z,97.6
2018-12-11T01:46:26.895Z,97.31
2018-12-11T01:47:26.378Z,97.22
2018-12-11T01:48:24.928Z,96.26
2018-12-11T01:49:23.582Z,96.65
2018-12-11T01:50:22.304Z,96.45
2018-12-11T01:51:20.857Z,96.65
2018-12-11T01:52:19.808Z,96.65
2018-12-11T01:53:18.362Z,97.22
2018-12-11T01:54:17.135Z,96.55
2018-12-11T01:55:15.796Z,96.93
2018-12-11T01:56:14.354Z,96.93
2018-12-11T01:57:12.960Z,96.84
2018-12-11T01:58:11.535Z,96.65
2018-12-11T01:59:10.087Z,96.36
2018-12-11T02:00:08.648Z,96.08
2018-12-11T02:01:07.417Z,96.08
2018-12-11T02:02:06.173Z,96.74
2018-12-11T02:03:04.730Z,96.36
2018-12-11T02:04:03.454Z,95.89
2018-12-11T02:05:02.091Z,96.65
2018-12-11T02:07:44.065Z,97.5
2018-12-11T02:08:42.609Z,97.12
2018-12-11T02:09:41.349Z,96.93
2018-12-11T02:10:40.080Z,96.84
2018-12-11T02:11:38.639Z,96.74
2018-12-11T02:12:37.416Z,95.98
2018-12-11T02:13:35.956Z,95.79
2018-12-11T02:14:34.496Z,96.26
2018-12-11T02:15:33.061Z,95.98
2018-12-11T02:16:31.581Z,95.79
2018-12-11T02:17:30.201Z,95.6
2018-12-11T02:18:28.750Z,95.6
2018-12-11T02:19:27.571Z,95.12
2018-12-11T02:20:26.106Z,95.7
2018-12-11T02:21:24.671Z,95.41
2018-12-11T02:22:23.362Z,95.79
2018-12-11T02:23:22.046Z,95.51
2018-12-11T02:24:20.599Z,96.08
2018-12-11T02:25:19.180Z,95.6
2018-12-11T02:26:17.728Z,96.08
2018-12-11T02:27:16.274Z,96.26
2018-12-11T02:28:14.806Z,95.79
2018-12-11T02:29:13.343Z,95.7
2018-12-11T02:30:11.903Z,95.79
2018-12-11T02:31:10.416Z,95.79
2018-12-11T02:32:08.908Z,96.17
2018-12-11T02:33:07.459Z,96.36
2018-12-11T02:34:06.022Z,95.98
2018-12-11T02:35:04.583Z,96.08
2018-12-11T02:36:03.385Z,96.26
2018-12-11T02:37:02.069Z,96.41
2018-12-11T02:38:00.593Z,96.88
2018-12-11T02:38:59.232Z,96.69
2018-12-11T02:39:57.880Z,97.07
2018-12-11T02:40:56.418Z,97.55
2018-12-11T02:41:54.939Z,97.6
2018-12-11T02:42:53.511Z,97.12
2018-12-11T02:43:52.141Z,96.93
2018-12-11T02:44:50.637Z,96.5
2018-12-11T02:45:49.476Z,96.5
2018-12-11T02:46:48.159Z,97.07
2018-12-11T02:47:46.681Z,96.69
2018-12-11T02:48:45.302Z,97.03
2018-12-11T02:49:44.077Z,96.26
2018-12-11T02:50:42.602Z,95.89
2018-12-11T02:51:41.169Z,96.22
2018-12-11T02:52:40.219Z,96.22
2018-12-11T02:53:38.734Z,96.6
2018-12-11T02:54:37.442Z,96.22
2018-12-11T02:55:36.374Z,95.94
2018-12-11T02:56:34.964Z,96.03
2018-12-11T02:57:33.679Z,95.94
2018-12-11T02:58:32.213Z,95.84
2018-12-11T02:59:30.764Z,96.22
2018-12-11T03:00:29.628Z,95.75
2018-12-11T03:01:28.228Z,95.84
2018-12-11T03:02:26.737Z,95.94
2018-12-11T03:03:25.274Z,96.41
2018-12-11T03:04:23.828Z,96.08
2018-12-11T03:05:22.379Z,94.93
2018-12-11T03:06:20.910Z,95.6
2018-12-11T03:07:19.461Z,94.84
2018-12-11T03:08:18.091Z,94.46
2018-12-11T03:10:58.364Z,94.46
2018-12-11T03:11:56.955Z,93.89
2018-12-11T03:12:55.675Z,94.56
2018-12-11T03:13:54.225Z,94.08
2018-12-11T03:14:52.770Z,93.79
2018-12-11T03:15:51.463Z,94.27
2018-12-11T03:16:49.951Z,94.65
2018-12-11T03:17:48.487Z,94.46
2018-12-11T03:18:47.111Z,94.98
2018-12-11T03:19:45.760Z,94.84
2018-12-11T03:20:44.343Z,94.65
2018-12-11T03:21:42.907Z,94.65
2018-12-11T03:22:41.795Z,94.93
2018-12-11T03:25:04.671Z,95.12
2018-12-11T03:26:03.344Z,94.32
2018-12-11T03:27:02.107Z,94.65
2018-12-11T03:28:00.680Z,94.98
2018-12-11T03:28:59.307Z,94.89
2018-12-11T03:31:39.872Z,95.36
2018-12-11T03:32:38.371Z,95.51
2018-12-11T03:33:36.934Z,94.93
2018-12-11T03:34:35.701Z,94.46
2018-12-11T03:35:34.286Z,94.18
2018-12-11T03:36:32.862Z,94.51
2018-12-11T03:37:31.423Z,94.37
2018-12-11T03:38:29.992Z,93.99
2018-12-11T03:39:28.558Z,94.74
2018-12-11T03:40:27.139Z,94.27
2018-12-11T03:41:25.638Z,94.37
2018-12-11T03:42:24.189Z,93.79
2018-12-11T03:43:22.741Z,94.18
2018-12-11T03:44:21.493Z,94.08
2018-12-11T03:45:20.060Z,94.18
2018-12-11T03:46:18.574Z,94.08
2018-12-11T03:47:17.464Z,94.32
2018-12-11T03:48:16.107Z,94.42
2018-12-11T03:49:14.631Z,94.98
2018-12-11T03:50:13.309Z,94.6
2018-12-11T03:51:12.156Z,95.12
2018-12-11T03:52:10.686Z,94.27
2018-12-11T03:53:09.484Z,94.18
2018-12-11T03:55:18.177Z,94.37
2018-12-11T03:56:16.670Z,94.27
2018-12-11T03:57:15.345Z,94.27
2018-12-11T03:58:14.024Z,93.99
2018-12-11T04:00:11.492Z,94.27
2018-12-11T04:01:10.277Z,93.99
2018-12-11T04:02:08.904Z,94.27
2018-12-11T04:03:07.467Z,93.6
2018-12-11T04:04:06.064Z,93.99
2018-12-11T04:05:04.583Z,94.08
2018-12-11T04:06:03.111Z,94.37
2018-12-11T04:07:01.669Z,93.51
2018-12-11T04:08:00.174Z,94.23
2018-12-11T04:08:58.706Z,94.32
2018-12-11T04:09:57.250Z,94.42
2018-12-11T04:10:55.818Z,94.13
2018-12-11T04:11:54.396Z,94.23
2018-12-11T04:12:52.918Z,95.08
2018-12-11T04:13:51.807Z,94.79
2018-12-11T04:14:50.330Z,94.79
2018-12-11T04:15:49.033Z,95.08
2018-12-11T04:16:47.767Z,95.55
2018-12-11T04:17:46.311Z,95.94
2018-12-11T04:18:44.919Z,95.75
2018-12-11T04:19:43.441Z,96.6
2018-12-11T04:20:41.966Z,96.88
2018-12-11T04:21:40.523Z,96.88
2018-12-11T04:22:39.406Z,97.17
2018-12-11T04:23:38.096Z,96.88
2018-12-11T04:24:36.671Z,96.69
2018-12-11T04:25:35.432Z,96.69
2018-12-11T04:29:18.121Z,96.69
2018-12-11T04:30:19.388Z,96.69
2018-12-11T04:31:18.001Z,96.79
2018-12-11T04:32:16.642Z,96.79
2018-12-11T04:33:15.294Z,96.79
2018-12-11T04:34:13.946Z,96.69
2018-12-11T04:35:12.467Z,96.5
2018-12-11T04:36:11.221Z,96.5
2018-12-11T04:37:09.866Z,96.6
2018-12-11T04:38:08.405Z,96.31
2018-12-11T04:39:06.959Z,95.84
2018-12-11T04:40:05.680Z,96.03
2018-12-11T04:41:04.211Z,96.12
2018-12-11T04:42:02.698Z,96.22
2018-12-11T04:43:01.454Z,96.31
2018-12-11T04:44:00.104Z,96.22
2018-12-11T04:44:58.631Z,96.31
2018-12-11T04:45:57.301Z,96.22
2018-12-11T04:46:56.022Z,96.55
2018-12-11T04:47:54.592Z,97.41
2018-12-11T04:48:53.205Z,97.41
2018-12-11T04:49:52.014Z,97.97
2018-12-11T04:50:50.589Z,97.97
2018-12-11T04:51:49.151Z,97.31
2018-12-11T04:52:47.910Z,97.55
2018-12-11T04:53:46.510Z,97.5
2018-12-11T04:54:45.029Z,98.02
2018-12-11T04:57:07.950Z,96.98
2018-12-11T04:58:06.484Z,96.6
2018-12-11T04:59:05.113Z,96.41
2018-12-11T05:00:03.844Z,96.41
2018-12-11T05:01:02.429Z,95.75
2018-12-11T05:02:01.016Z,96.41
2018-12-11T05:02:59.630Z,96.22
2018-12-11T05:03:58.226Z,96.5
2018-12-11T05:04:56.792Z,96.5
2018-12-11T05:05:55.652Z,96.41
2018-12-11T05:06:54.201Z,96.88
2018-12-11T05:07:52.757Z,96.5
2018-12-11T05:08:51.546Z,96.41
2018-12-11T05:09:50.215Z,96.31
2018-12-11T05:10:48.793Z,96.31
2018-12-11T05:11:47.339Z,97.07
2018-12-11T05:12:45.909Z,96.31
2018-12-11T05:13:44.486Z,96.69
2018-12-11T05:14:43.042Z,95.84
2018-12-11T05:15:41.770Z,96.31
2018-12-11T05:19:20.653Z,97.07
2018-12-11T05:20:19.192Z,97.27
2018-12-11T05:21:17.814Z,96.98
2018-12-11T05:22:16.424Z,96.79
2018-12-11T05:23:14.960Z,97.41
2018-12-11T05:24:13.830Z,97.6
2018-12-11T05:25:12.571Z,97.12
2018-12-11T05:26:11.165Z,97.22
2018-12-11T05:46:31.248Z,97.78
2018-12-11T05:47:30.069Z,97.6
2018-12-11T05:48:28.600Z,97.88
2018-12-11T05:49:27.155Z,97.78
2018-12-11T05:50:25.699Z,98.07
2018-12-11T05:51:24.311Z,98.83
2018-12-11T05:52:22.813Z,98.35
2018-12-11T05:55:03.245Z,97.5
2018-12-11T05:58:42.142Z,97.78
2018-12-11T05:59:42.501Z,98.07
2018-12-11T06:00:41.250Z,98.45
2018-12-11T06:01:39.806Z,97.6
2018-12-11T06:02:38.433Z,97.78
2018-12-11T06:03:36.972Z,98.35
2018-12-11T06:04:35.820Z,97.6
2018-12-11T06:05:34.377Z,98.26
2018-12-11T06:06:32.914Z,98.16
2018-12-11T06:07:31.568Z,98.92
2018-12-11T06:08:37.422Z,98.45
2018-12-11T06:09:36.132Z,98.83
2018-12-11T06:10:34.663Z,98.64
2018-12-11T06:11:33.316Z,98.64
2018-12-11T06:12:31.961Z,98.45
2018-12-11T06:13:30.527Z,98.64
2018-12-11T06:14:29.062Z,98.54
2018-12-11T06:15:27.616Z,98.45
2018-12-11T06:16:26.192Z,98.45
2018-12-11T06:17:24.739Z,99.02
2018-12-11T06:18:23.493Z,99.3
2018-12-11T06:19:22.002Z,99.02
2018-12-11T06:20:20.525Z,99.21
2018-12-11T06:21:19.124Z,99.99
2018-12-11T06:22:17.920Z,99.99
2018-12-11T06:23:16.425Z,99.3
2018-12-11T06:24:15.061Z,99.99
2018-12-11T06:25:13.662Z,99.99
2018-12-11T06:26:12.197Z,99.99
2018-12-11T06:27:10.747Z,99.99
2018-12-11T06:28:09.696Z,99.99
2018-12-11T06:29:08.240Z,99.99
2018-12-11T06:30:06.815Z,99.99
2018-12-11T06:31:05.603Z,99.99
2018-12-11T06:32:04.269Z,99.99
2018-12-11T06:33:02.878Z,99.99
2018-12-11T06:34:01.421Z,99.99
2018-12-11T06:35:00.010Z,99.99
2018-12-11T06:35:58.569Z,99.99
2018-12-11T06:36:57.373Z,99.99
2018-12-11T06:37:56.046Z,99.99
2018-12-11T06:38:54.593Z,99.99
2018-12-11T06:39:53.242Z,99.99
2018-12-11T06:40:52.040Z,99.87
2018-12-11T06:41:50.502Z,99.99
2018-12-11T06:42:49.049Z,99.99
2018-12-11T06:43:47.989Z,99.99
2018-12-11T06:44:46.541Z,99.99
2018-12-11T06:45:45.390Z,99.99
2018-12-11T06:46:44.007Z,99.99
2018-12-11T06:47:42.562Z,99.99
2018-12-11T06:48:41.102Z,99.77
2018-12-11T06:49:39.646Z,99.99
2018-12-11T06:50:38.183Z,99.99
2018-12-11T06:51:36.723Z,99.99
2018-12-11T06:52:35.302Z,99.99
2018-12-11T06:53:33.932Z,99.99
2018-12-11T06:54:32.512Z,99.99
2018-12-11T06:55:31.107Z,99.87
2018-12-11T06:56:29.978Z,99.3
2018-12-11T06:57:28.492Z,99.58
2018-12-11T06:58:26.986Z,99.77
2018-12-11T06:59:25.690Z,99.77
2018-12-11T07:00:24.250Z,99.99
2018-12-11T07:01:22.768Z,99.99
2018-12-11T07:02:21.284Z,99.99
2018-12-11T07:03:19.845Z,99.99
2018-12-11T07:04:18.352Z,99.99
2018-12-11T07:05:16.916Z,99.99
2018-12-11T07:06:15.450Z,99.99
2018-12-11T07:07:13.997Z,99.99
2018-12-11T07:08:12.545Z,99.99
2018-12-11T07:09:11.432Z,99.99
2018-12-11T07:10:10.093Z,99.99
2018-12-11T07:11:08.645Z,99.99
2018-12-11T07:12:07.294Z,99.99
2018-12-11T07:13:05.996Z,99.99
2018-12-11T07:14:04.579Z,99.99
2018-12-11T07:15:03.358Z,99.99
2018-12-11T07:16:01.942Z,99.99
2018-12-11T07:17:00.500Z,99.99
2018-12-11T07:17:59.061Z,99.99
2018-12-11T07:18:57.945Z,99.99
2018-12-11T07:19:56.488Z,99.99
2018-12-11T07:20:55.051Z,99.99
2018-12-11T07:21:53.628Z,99.99
2018-12-11T07:22:52.170Z,99.99
2018-12-11T07:23:50.702Z,99.99
2018-12-11T07:24:51.595Z,99.99
2018-12-11T07:25:50.145Z,99.99
2018-12-11T07:26:48.737Z,99.99
2018-12-11T07:27:47.438Z,99.99
2018-12-11T07:28:46.132Z,99.99
2018-12-11T07:29:44.692Z,99.99
2018-12-11T07:30:43.220Z,99.99
2018-12-11T07:31:41.789Z,99.99
2018-12-11T07:32:40.338Z,99.99
2018-12-11T07:33:38.881Z,99.99
2018-12-11T07:34:37.762Z,99.99
2018-12-11T07:35:36.332Z,99.99
2018-12-11T07:36:34.854Z,99.99
2018-12-11T07:37:33.622Z,99.99
2018-12-11T07:38:32.486Z,99.99
2018-12-11T07:39:31.003Z,99.99
2018-12-11T07:40:29.850Z,99.99
2018-12-11T07:41:28.391Z,99.99
2018-12-11T07:42:27.055Z,99.99
2018-12-11T07:43:25.765Z,99.99
2018-12-11T07:44:24.322Z,99.99
2018-12-11T07:45:22.859Z,99.99
2018-12-11T07:46:21.384Z,99.99
2018-12-11T07:47:19.961Z,99.99
2018-12-11T07:48:18.496Z,99.99
2018-12-11T07:49:17.046Z,99.99
2018-12-11T07:50:15.579Z,99.99
2018-12-11T07:51:14.112Z,99.99
2018-12-11T07:52:12.668Z,99.99
2018-12-11T07:53:11.298Z,99.99
2018-12-11T07:54:10.808Z,99.99
2018-12-11T07:55:09.644Z,99.99
2018-12-11T07:56:08.271Z,99.99
2018-12-11T07:57:06.798Z,99.99
2018-12-11T07:58:05.528Z,99.99
2018-12-11T07:59:04.149Z,99.99
2018-12-11T08:00:02.689Z,99.99
2018-12-11T08:01:01.226Z,99.99
2018-12-11T08:01:59.906Z,99.99
2018-12-11T08:02:58.549Z,99.99
2018-12-11T08:03:57.241Z,99.99
2018-12-11T08:04:56.051Z,99.99
2018-12-11T08:05:54.601Z,99.99
2018-12-11T08:06:53.145Z,99.99
2018-12-11T08:07:51.691Z,99.99
2018-12-11T08:08:50.298Z,99.99
2018-12-11T08:09:48.878Z,99.99
2018-12-11T08:10:47.418Z,99.99
2018-12-11T08:11:45.998Z,99.99
2018-12-11T08:12:44.531Z,99.99
2018-12-11T08:13:43.301Z,99.99
2018-12-11T08:14:42.096Z,99.99
2018-12-11T08:15:40.655Z,99.99
2018-12-11T08:16:39.231Z,99.99
2018-12-11T08:17:37.916Z,99.99
2018-12-11T08:18:36.457Z,99.99
2018-12-11T08:19:35.000Z,99.99
2018-12-11T08:20:34.144Z,99.99
2018-12-11T08:21:32.703Z,99.99
2018-12-11T08:22:31.306Z,99.99
2018-12-11T08:23:29.904Z,99.99
2018-12-11T08:24:28.428Z,99.99
2018-12-11T08:25:26.989Z,99.99
2018-12-11T08:26:25.611Z,99.99
2018-12-11T08:27:24.166Z,99.99
2018-12-11T08:30:04.607Z,99.99
2018-12-11T08:31:03.276Z,99.99
2018-12-11T08:32:01.914Z,99.99
2018-12-11T08:33:00.452Z,99.99
2018-12-11T08:33:58.972Z,99.99
2018-12-11T08:34:57.709Z,99.99
2018-12-11T08:35:56.280Z,99.99
2018-12-11T08:36:55.078Z,99.99
2018-12-11T08:37:53.880Z,99.99
2018-12-11T08:38:52.388Z,99.99
2018-12-11T08:39:50.924Z,99.99
2018-12-11T08:40:49.635Z,99.99
2018-12-11T08:41:48.205Z,99.99
2018-12-11T08:42:46.754Z,99.99
2018-12-11T08:43:45.294Z,99.99
2018-12-11T08:44:43.873Z,99.99
2018-12-11T08:45:42.440Z,99.99
2018-12-11T08:46:41.251Z,99.99
2018-12-11T08:47:39.898Z,99.99
2018-12-11T08:48:38.444Z,99.99
2018-12-11T08:49:37.009Z,99.99
2018-12-11T08:50:35.694Z,99.99
2018-12-11T08:51:34.346Z,99.99
2018-12-11T08:52:33.102Z,99.99
2018-12-11T08:53:31.568Z,99.99
2018-12-11T08:54:30.101Z,99.99
2018-12-11T08:55:28.668Z,99.99
2018-12-11T08:56:27.433Z,99.99
2018-12-11T08:57:26.244Z,99.99
2018-12-11T08:58:24.798Z,99.99
2018-12-11T08:59:23.378Z,99.99
2018-12-11T09:00:21.985Z,99.99
2018-12-11T09:01:20.528Z,99.99
2018-12-11T09:02:19.080Z,99.99
2018-12-11T09:03:17.639Z,99.99
2018-12-11T09:04:16.199Z,99.99
2018-12-11T09:05:14.778Z,99.99
2018-12-11T09:06:13.590Z,99.99
2018-12-11T09:07:12.311Z,99.99
2018-12-11T09:08:10.857Z,99.99
2018-12-11T09:09:09.480Z,99.99
2018-12-11T09:10:08.126Z,99.99
2018-12-11T09:11:06.671Z,99.99
2018-12-11T09:12:05.321Z,99.99
2018-12-11T09:13:03.771Z,99.99
2018-12-11T09:14:02.319Z,99.99
2018-12-11T09:15:00.869Z,99.99
2018-12-11T09:15:59.477Z,99.99
2018-12-11T09:16:58.153Z,99.99
2018-12-11T09:17:56.695Z,99.99
2018-12-11T09:18:55.322Z,99.99
2018-12-11T09:19:53.974Z,99.99
2018-12-11T09:20:52.514Z,99.46
2018-12-11T09:24:31.228Z,99.99
2018-12-11T09:25:29.784Z,99.99
2018-12-11T09:26:28.415Z,99.99
2018-12-11T09:27:26.898Z,99.99
2018-12-11T09:28:25.490Z,99.99
2018-12-11T09:29:24.039Z,98.03
2018-12-11T09:30:22.585Z,98.22
2018-12-11T09:31:21.460Z,96.89
2018-12-11T09:53:53.249Z,99.99
2018-12-11T09:54:52.032Z,99.99
2018-12-11T09:55:50.564Z,99.99
2018-12-11T09:56:49.154Z,99.99
2018-12-11T09:57:48.125Z,99.99
2018-12-11T09:58:46.675Z,99.99
2018-12-11T09:59:45.590Z,99.46
2018-12-11T10:00:44.202Z,93.55
2018-12-11T10:01:42.756Z,91.22
2018-12-11T10:02:41.287Z,91.31
2018-12-11T10:03:39.933Z,90.75
2018-12-11T10:04:38.425Z,92.55
2018-12-11T10:05:36.946Z,90.56
2018-12-11T10:09:15.882Z,89.79
2018-12-11T10:10:14.410Z,92.18
2018-12-11T10:11:12.988Z,92.08
2018-12-11T10:12:11.702Z,91.31
2018-12-11T10:13:10.419Z,91.22
2018-12-11T10:14:08.967Z,93.51
2018-12-11T10:15:07.497Z,93.41
2018-12-11T10:16:06.041Z,99.99
2018-12-11T10:17:04.582Z,99.99
2018-12-11T10:20:44.611Z,99.99
2018-12-11T10:21:43.214Z,99.99
2018-12-11T10:22:41.939Z,99.99
2018-12-11T10:23:40.486Z,99.99
2018-12-11T10:24:39.082Z,99.99
2018-12-11T10:25:37.729Z,99.99
2018-12-11T10:26:36.406Z,99.99
2018-12-11T10:27:34.886Z,99.99
2018-12-11T10:28:33.531Z,99.99
2018-12-11T10:29:32.239Z,99.99
2018-12-11T10:31:40.181Z,99.99
2018-12-11T10:32:38.798Z,99.99
2018-12-11T10:33:37.265Z,99.99
2018-12-11T10:34:35.910Z,99.99
2018-12-11T10:35:34.434Z,99.99
2018-12-11T10:36:32.985Z,99.99
2018-12-11T10:37:31.872Z,99.99
2018-12-11T10:38:30.423Z,99.99
2018-12-11T10:39:28.937Z,99.99
2018-12-11T10:40:27.713Z,99.99
2018-12-11T10:41:26.477Z,99.99
2018-12-11T10:42:25.008Z,99.99
2018-12-11T10:43:23.632Z,99.99
2018-12-11T10:44:22.191Z,99.99
2018-12-11T10:45:20.737Z,99.99
2018-12-11T10:46:19.545Z,95.17
2018-12-11T10:47:18.237Z,96.6
2018-12-11T10:48:16.801Z,96.98
2018-12-11T10:49:15.467Z,92.84
2018-12-11T10:50:14.110Z,91.79
2018-12-11T10:51:12.649Z,93.22
2018-12-11T10:52:11.176Z,95.22
2018-12-11T10:53:09.725Z,93.51
2018-12-11T10:54:08.316Z,94.51
2018-12-11T10:55:06.866Z,92.94
2018-12-11T10:56:05.685Z,93.08
2018-12-11T10:57:04.301Z,94.79
2018-12-11T10:58:02.866Z,99.99
2018-12-11T10:59:01.523Z,99.99
2018-12-11T11:00:00.196Z,99.99
2018-12-11T11:00:58.752Z,99.99
2018-12-11T11:01:57.316Z,99.99
2018-12-11T11:02:55.920Z,99.99
2018-12-11T11:03:54.470Z,99.99
2018-12-11T11:06:34.553Z,99.99
2018-12-11T11:07:33.275Z,99.99
2018-12-11T11:08:32.130Z,99.99
2018-12-11T11:09:30.735Z,99.99
2018-12-11T11:10:29.291Z,99.99
2018-12-11T11:11:27.841Z,99.99
2018-12-11T11:12:26.394Z,99.99
2018-12-11T11:13:24.941Z,99.99
2018-12-11T11:14:23.485Z,99.99
2018-12-11T11:15:22.006Z,99.99
2018-12-11T11:16:20.563Z,99.99
2018-12-11T11:17:19.095Z,99.99
2018-12-11T11:18:17.964Z,99.99
2018-12-11T11:19:16.519Z,99.99
2018-12-11T11:20:15.150Z,99.99
2018-12-11T11:22:57.374Z,99.99
2018-12-11T11:23:55.979Z,99.99
2018-12-11T11:24:54.542Z,99.99
2018-12-11T11:25:53.083Z,99.99
2018-12-11T11:26:51.959Z,99.99
2018-12-11T11:27:50.512Z,99.99
2018-12-11T11:28:49.112Z,99.99
2018-12-11T11:29:47.758Z,99.99
2018-12-11T11:30:46.428Z,99.99
2018-12-11T11:31:44.953Z,99.99
2018-12-11T11:32:43.470Z,99.99
2018-12-11T11:33:42.140Z,99.99
2018-12-11T11:34:40.695Z,99.99
2018-12-11T11:35:39.586Z,99.99
2018-12-11T11:36:38.318Z,99.99
2018-12-11T11:37:36.837Z,99.99
2018-12-11T11:38:35.461Z,99.99
2018-12-11T11:39:34.115Z,99.99
2018-12-11T11:40:32.653Z,99.99
2018-12-11T11:41:31.187Z,99.99
2018-12-11T11:42:29.711Z,99.99
2018-12-11T11:43:28.249Z,99.99
2018-12-11T11:44:26.803Z,95.84
2018-12-11T11:45:25.432Z,96.94
2018-12-11T11:46:24.132Z,99.99
2018-12-11T11:47:22.671Z,99.99
2018-12-11T11:48:21.372Z,99.99
2018-12-11T11:49:20.095Z,99.99
2018-12-11T11:50:18.629Z,99.94
2018-12-11T11:51:17.173Z,99.99
2018-12-11T11:52:15.845Z,99.99
2018-12-11T11:53:14.405Z,99.99
2018-12-11T11:54:12.937Z,99.99
2018-12-11T11:55:11.799Z,99.37
2018-12-11T11:56:10.355Z,97.75
2018-12-11T11:57:08.911Z,97.94
2018-12-11T11:58:07.725Z,95.6
2018-12-11T11:59:06.439Z,93.79
2018-12-11T12:00:05.053Z,95.94
2018-12-11T12:01:03.588Z,96.89
2018-12-11T12:02:02.115Z,99.99
2018-12-11T12:03:00.678Z,99.99
2018-12-11T12:03:59.207Z,97.41
2018-12-11T12:04:58.148Z,96.17
2018-12-11T12:05:56.689Z,99.99
2018-12-11T12:08:37.052Z,99.94
2018-12-11T12:09:35.627Z,98.08
2018-12-11T12:12:15.990Z,96.08
2018-12-11T12:13:14.544Z,97.41
2018-12-11T12:14:13.059Z,96.27
2018-12-11T12:15:11.832Z,95.51
2018-12-11T12:16:10.412Z,97.99
2018-12-11T12:17:08.868Z,96.27
2018-12-11T12:18:07.505Z,94.74
2018-12-11T12:19:06.115Z,94.37
2018-12-11T12:20:04.631Z,95.98
2018-12-11T12:21:03.207Z,95.7
2018-12-11T12:22:01.764Z,95.79
2018-12-11T12:23:00.304Z,96.17
2018-12-11T12:23:58.853Z,95.75
2018-12-11T12:24:57.681Z,94.6
2018-12-11T12:25:56.341Z,95.56
2018-12-11T12:26:54.959Z,96.51
2018-12-11T12:27:53.595Z,97.08
2018-12-11T12:28:52.252Z,96.89
2018-12-11T12:40:40.461Z,89.37
2018-12-11T12:41:38.987Z,87.98
2018-12-11T12:42:37.858Z,87.51
2018-12-11T12:43:36.401Z,87.79
2018-12-11T12:44:35.020Z,87.08
2018-12-11T12:45:33.750Z,87.23
2018-12-11T12:46:32.369Z,88.23
2018-12-11T12:47:30.904Z,87.79
2018-12-11T12:48:29.420Z,88.18
2018-12-11T12:49:28.028Z,87.41
2018-12-11T12:50:26.607Z,87.79
2018-12-11T12:51:25.160Z,86.84
2018-12-11T12:52:23.924Z,86.55
2018-12-11T12:53:22.473Z,86.36
2018-12-11T12:54:21.016Z,86.32
2018-12-11T12:55:19.897Z,86.41
2018-12-11T12:56:18.481Z,85.55
2018-12-11T12:57:17.028Z,85.74
2018-12-11T12:58:15.581Z,85.51
2018-12-11T12:59:14.151Z,85.74
2018-12-11T13:00:12.708Z,85.8
2018-12-11T13:01:11.271Z,85.6
2018-12-11T13:02:09.780Z,85.32
2018-12-11T13:03:08.315Z,85.8
2018-12-11T13:04:06.880Z,86.03
2018-12-11T13:05:05.753Z,86.27
2018-12-11T13:06:04.424Z,85.8
2018-12-11T13:07:02.949Z,86.18
2018-12-11T13:08:01.661Z,85.7
2018-12-11T13:09:00.360Z,85.22
2018-12-11T13:09:58.939Z,86.36
2018-12-11T13:10:57.791Z,86.04
2018-12-11T13:11:56.349Z,86.32
2018-12-11T13:12:54.888Z,86.04
2018-12-11T13:13:53.729Z,86.32
2018-12-11T13:14:52.648Z,86.42
2018-12-11T13:15:51.962Z,86.7
2018-12-11T13:16:50.410Z,86.76
2018-12-11T13:17:48.914Z,87.52
2018-12-11T13:18:47.564Z,88.18
2018-12-11T13:19:46.292Z,88.56
2018-12-11T13:20:44.843Z,88.75
2018-12-11T13:21:43.476Z,89.66
2018-12-11T13:22:42.122Z,89.7
2018-12-11T13:23:40.645Z,89.7
2018-12-11T13:24:39.247Z,89.23
2018-12-11T13:25:37.895Z,89.47
2018-12-11T13:26:36.564Z,90.23
2018-12-11T13:27:35.129Z,89.99
2018-12-11T13:28:33.690Z,89.37
2018-12-11T13:29:32.226Z,90.47
2018-12-11T13:30:30.763Z,90.04
2018-12-11T13:31:29.600Z,89.94
2018-12-11T13:32:28.314Z,90.14
2018-12-11T13:33:26.912Z,90.89
2018-12-11T13:34:25.555Z,90.8
2018-12-11T13:35:24.132Z,91.18
2018-12-11T13:36:22.655Z,90.52
2018-12-11T13:37:21.264Z,90.8
2018-12-11T13:38:19.815Z,91.28
2018-12-11T13:39:18.388Z,91.18
2018-12-11T13:40:16.896Z,90.89
2018-12-11T13:41:15.615Z,90.61
2018-12-11T13:42:14.228Z,90.84
2018-12-11T13:43:12.743Z,90.04
2018-12-11T13:44:11.371Z,90.14
2018-12-11T13:45:10.156Z,91.18
2018-12-11T13:46:08.704Z,90.18
2018-12-11T13:47:07.264Z,90.28
2018-12-11T13:48:05.875Z,89.09
2018-12-11T13:49:05.151Z,89.94
2018-12-11T13:50:03.841Z,89.7
2018-12-11T13:51:02.439Z,89.66
2018-12-11T13:52:00.975Z,89.85
2018-12-11T13:52:59.570Z,90.37
2018-12-11T13:53:58.150Z,89.85
2018-12-11T13:54:56.705Z,90.61
2018-12-11T13:55:55.259Z,90.52
2018-12-11T13:56:54.008Z,90.99
2018-12-11T13:57:52.598Z,90.42
2018-12-11T13:58:51.150Z,91.37
2018-12-11T13:59:49.943Z,91.37
2018-12-11T14:00:48.549Z,91.37
2018-12-11T14:01:47.097Z,91.47
2018-12-11T14:02:45.653Z,91.66
2018-12-11T14:03:44.162Z,91.66
2018-12-11T14:04:42.743Z,91.18
2018-12-11T14:05:41.310Z,91.08
2018-12-11T14:06:39.869Z,91.08
2018-12-11T14:07:38.419Z,91.56
2018-12-11T14:08:36.961Z,91.85
2018-12-11T14:09:35.760Z,91.47
2018-12-11T14:10:34.425Z,91.37
2018-12-11T14:11:32.949Z,91.18
2018-12-11T14:12:31.632Z,90.89